Time,TemperatureF,DewpointF,PressureIn,WindDirection,WindDirectionDegrees,WindSpeedMPH,WindSpeedGustMPH,Humidity,HourlyPrecipIn,Conditions,Clouds,dailyrainin,SoftwareType,DateUTC
2013-02-12 00:02:00,9.8,7.0,30.08,WNW,303,0.0,0.0,88,0.00,,,0.03,Wunderground v.1.15,2013-02-12 06:02:00,
2013-02-12 00:09:00,9.3,6.7,30.09,WNW,303,0.0,0.0,89,0.00,,,0.03,Wunderground v.1.15,2013-02-12 06:09:00,
2013-02-12 00:15:00,9.0,6.4,30.09,WNW,303,0.0,0.0,89,0.00,,,0.03,Wunderground v.1.15,2013-02-12 06:15:00,
2013-02-12 00:20:00,8.7,6.1,30.09,WNW,303,0.0,0.0,89,0.00,,,0.03,Wunderground v.1.15,2013-02-12 06:20:00,
2013-02-12 00:25:00,8.5,6.2,30.09,WNW,303,0.0,0.0,90,0.00,,,0.03,Wunderground v.1.15,2013-02-12 06:25:00,
2013-02-12 00:31:00,8.4,6.1,30.09,WNW,303,0.0,0.0,90,0.00,,,0.03,Wunderground v.1.15,2013-02-12 06:31:00,
2013-02-12 00:36:00,8.4,6.1,30.09,WNW,303,0.0,0.0,90,0.00,,,0.03,Wunderground v.1.15,2013-02-12 06:36:00,
2013-02-12 00:41:00,8.7,6.9,30.09,WNW,303,0.0,0.0,92,0.00,,,0.03,Wunderground v.1.15,2013-02-12 06:41:00,
2013-02-12 00:47:00,9.4,7.5,30.08,WNW,303,0.0,2.0,92,0.00,,,0.03,Wunderground v.1.15,2013-02-12 06:47:00,
2013-02-12 00:53:00,10.8,9.2,30.08,WNW,301,2.0,2.0,93,0.00,,,0.03,Wunderground v.1.15,2013-02-12 06:53:00,
2013-02-12 00:58:00,11.9,10.5,30.08,WNW,301,0.0,2.0,94,0.00,,,0.03,Wunderground v.1.15,2013-02-12 06:58:00,
2013-02-12 01:03:00,11.9,10.3,30.08,WNW,301,0.0,1.0,93,0.00,,,0.03,Wunderground v.1.15,2013-02-12 07:03:00,
2013-02-12 01:08:00,11.8,9.9,30.08,WNW,301,0.0,1.0,92,0.00,,,0.03,Wunderground v.1.15,2013-02-12 07:08:00,
2013-02-12 01:14:00,12.0,10.1,30.09,WNW,301,0.0,0.0,92,0.00,,,0.03,Wunderground v.1.15,2013-02-12 07:14:00,
2013-02-12 01:21:00,12.6,10.7,30.08,WNW,301,0.0,0.0,92,0.00,,,0.03,Wunderground v.1.15,2013-02-12 07:21:00,
2013-02-12 01:27:00,13.2,11.3,30.08,WNW,301,2.0,3.0,92,0.00,,,0.03,Wunderground v.1.15,2013-02-12 07:27:00,
2013-02-12 01:32:00,13.7,11.8,30.08,WNW,301,0.0,1.0,92,0.00,,,0.03,Wunderground v.1.15,2013-02-12 07:32:00,
2013-02-12 01:38:00,14.2,12.3,30.08,WNW,301,0.0,3.0,92,0.00,,,0.03,Wunderground v.1.15,2013-02-12 07:38:00,
2013-02-12 01:43:00,14.5,12.6,30.08,WNW,301,0.0,1.0,92,0.00,,,0.03,Wunderground v.1.15,2013-02-12 07:43:00,
2013-02-12 01:49:00,14.7,12.8,30.08,WNW,301,0.0,3.0,92,0.00,,,0.03,Wunderground v.1.15,2013-02-12 07:49:00,
2013-02-12 01:54:00,15.1,13.2,30.08,WNW,301,2.0,2.0,92,0.00,,,0.03,Wunderground v.1.15,2013-02-12 07:54:00,
2013-02-12 02:00:00,15.3,13.1,30.08,WNW,301,0.0,2.0,91,0.00,,,0.03,Wunderground v.1.15,2013-02-12 08:00:00,
2013-02-12 02:05:00,15.6,13.4,30.08,WNW,301,0.0,2.0,91,0.00,,,0.03,Wunderground v.1.15,2013-02-12 08:05:00,
2013-02-12 02:10:00,15.9,13.7,30.08,WNW,301,0.0,2.0,91,0.00,,,0.03,Wunderground v.1.15,2013-02-12 08:10:00,
2013-02-12 02:15:00,16.0,13.8,30.08,WNW,301,1.0,1.0,91,0.00,,,0.03,Wunderground v.1.15,2013-02-12 08:15:00,
2013-02-12 02:20:00,16.0,13.8,30.08,WNW,301,0.0,2.0,91,0.00,,,0.03,Wunderground v.1.15,2013-02-12 08:20:00,
2013-02-12 02:25:00,16.1,13.9,30.08,WNW,301,0.0,2.0,91,0.00,,,0.03,Wunderground v.1.15,2013-02-12 08:25:00,
2013-02-12 02:30:00,16.3,14.1,30.08,WNW,301,0.0,2.0,91,0.00,,,0.03,Wunderground v.1.15,2013-02-12 08:30:00,
2013-02-12 02:35:00,16.4,14.2,30.08,WNW,301,0.0,3.0,91,0.00,,,0.00,Wunderground v.1.15,2013-02-12 08:35:00,
2013-02-12 02:40:00,16.6,14.4,30.08,WNW,301,0.0,3.0,91,0.00,,,0.00,Wunderground v.1.15,2013-02-12 08:40:00,
2013-02-12 02:45:00,16.8,14.6,30.08,WNW,301,2.0,3.0,91,0.00,,,0.00,Wunderground v.1.15,2013-02-12 08:45:00,
2013-02-12 02:50:00,16.9,14.7,30.08,WNW,301,0.0,1.0,91,0.00,,,0.00,Wunderground v.1.15,2013-02-12 08:50:00,
2013-02-12 02:56:00,17.1,14.9,30.08,WNW,301,0.0,3.0,91,0.00,,,0.00,Wunderground v.1.15,2013-02-12 08:56:00,
2013-02-12 03:01:00,17.3,15.1,30.08,West,279,2.0,2.0,91,0.00,,,0.00,Wunderground v.1.15,2013-02-12 09:01:00,
2013-02-12 03:06:00,17.3,15.1,30.08,West,279,1.0,3.0,91,0.00,,,0.00,Wunderground v.1.15,2013-02-12 09:06:00,
2013-02-12 03:11:00,17.4,15.2,30.07,West,275,2.0,3.0,91,0.00,,,0.00,Wunderground v.1.15,2013-02-12 09:11:00,
2013-02-12 03:16:00,17.5,15.3,30.07,WSW,246,2.0,7.0,91,0.00,,,0.00,Wunderground v.1.15,2013-02-12 09:16:00,
2013-02-12 03:21:00,17.6,15.2,30.07,WSW,245,1.0,3.0,90,0.00,,,0.00,Wunderground v.1.15,2013-02-12 09:21:00,
2013-02-12 03:26:00,17.6,15.2,30.07,SW,226,1.0,6.0,90,0.00,,,0.00,Wunderground v.1.15,2013-02-12 09:26:00,
2013-02-12 03:31:00,17.6,15.2,30.07,SW,228,5.0,5.0,90,0.00,,,0.00,Wunderground v.1.15,2013-02-12 09:31:00,
2013-02-12 03:36:00,17.6,15.2,30.07,SW,228,1.0,5.0,90,0.00,,,0.00,Wunderground v.1.15,2013-02-12 09:36:00,
2013-02-12 03:42:00,17.6,15.2,30.06,SW,227,0.0,1.0,90,0.00,,,0.00,Wunderground v.1.15,2013-02-12 09:42:00,
2013-02-12 03:47:00,17.6,15.2,30.06,SW,228,3.0,3.0,90,0.00,,,0.00,Wunderground v.1.15,2013-02-12 09:47:00,
2013-02-12 03:52:00,17.6,15.2,30.07,SW,228,2.0,3.0,90,0.00,,,0.00,Wunderground v.1.15,2013-02-12 09:52:00,
2013-02-12 03:57:00,17.6,15.2,30.06,SW,228,0.0,3.0,90,0.00,,,0.00,Wunderground v.1.15,2013-02-12 09:57:00,
2013-02-12 04:02:00,17.6,15.2,30.06,SW,228,0.0,3.0,90,0.00,,,0.00,Wunderground v.1.15,2013-02-12 10:02:00,
2013-02-12 04:07:00,17.7,15.3,30.06,WSW,248,3.0,6.0,90,0.00,,,0.00,Wunderground v.1.15,2013-02-12 10:07:00,
2013-02-12 04:12:00,17.8,15.4,30.06,WSW,246,1.0,4.0,90,0.00,,,0.00,Wunderground v.1.15,2013-02-12 10:12:00,
2013-02-12 04:18:00,17.9,15.5,30.05,SSW,198,6.0,6.0,90,0.00,,,0.00,Wunderground v.1.15,2013-02-12 10:18:00,
2013-02-12 04:23:00,17.9,15.5,30.05,SSW,198,2.0,4.0,90,0.00,,,0.00,Wunderground v.1.15,2013-02-12 10:23:00,
2013-02-12 04:28:00,18.0,15.6,30.06,SSW,197,2.0,4.0,90,0.00,,,0.00,Wunderground v.1.15,2013-02-12 10:28:00,
2013-02-12 04:33:00,18.0,15.6,30.05,SSW,197,2.0,3.0,90,0.00,,,0.00,Wunderground v.1.15,2013-02-12 10:33:00,
2013-02-12 04:38:00,18.0,15.6,30.05,SSW,196,3.0,4.0,90,0.00,,,0.00,Wunderground v.1.15,2013-02-12 10:38:00,
2013-02-12 04:43:00,18.0,15.6,30.05,SSW,194,3.0,4.0,90,0.00,,,0.00,Wunderground v.1.15,2013-02-12 10:43:00,
2013-02-12 04:48:00,18.0,15.6,30.05,SSW,200,0.0,4.0,90,0.00,,,0.00,Wunderground v.1.15,2013-02-12 10:48:00,
2013-02-12 04:53:00,18.1,15.7,30.05,SSW,198,0.0,3.0,90,0.00,,,0.00,Wunderground v.1.15,2013-02-12 10:53:00,
2013-02-12 04:59:00,18.1,15.7,30.05,SSW,192,2.0,3.0,90,0.00,,,0.00,Wunderground v.1.15,2013-02-12 10:59:00,
2013-02-12 05:04:00,18.2,15.8,30.04,South,190,2.0,4.0,90,0.00,,,0.00,Wunderground v.1.15,2013-02-12 11:04:00,
2013-02-12 05:09:00,18.2,15.8,30.04,SSE,164,4.0,5.0,90,0.00,,,0.00,Wunderground v.1.15,2013-02-12 11:09:00,
2013-02-12 05:14:00,18.2,15.8,30.05,SSE,164,0.0,4.0,90,0.00,,,0.00,Wunderground v.1.15,2013-02-12 11:14:00,
2013-02-12 05:19:00,18.2,15.5,30.05,SSE,165,2.0,4.0,89,0.00,,,0.00,Wunderground v.1.15,2013-02-12 11:19:00,
2013-02-12 05:24:00,18.3,15.6,30.05,SSE,167,4.0,5.0,89,0.00,,,0.00,Wunderground v.1.15,2013-02-12 11:24:00,
2013-02-12 05:29:00,18.4,16.0,30.04,SSE,167,0.0,5.0,90,0.00,,,0.00,Wunderground v.1.15,2013-02-12 11:29:00,
2013-02-12 05:34:00,18.4,16.0,30.04,SSE,167,0.0,1.0,90,0.00,,,0.00,Wunderground v.1.15,2013-02-12 11:34:00,
2013-02-12 05:40:00,18.4,15.7,30.04,SSE,167,5.0,5.0,89,0.00,,,0.00,Wunderground v.1.15,2013-02-12 11:40:00,
2013-02-12 05:45:00,18.5,16.1,30.04,South,172,4.0,5.0,90,0.00,,,0.00,Wunderground v.1.15,2013-02-12 11:45:00,
2013-02-12 05:50:00,18.5,15.8,30.04,SSW,203,2.0,5.0,89,0.00,,,0.00,Wunderground v.1.15,2013-02-12 11:50:00,
2013-02-12 05:55:00,18.4,15.7,30.04,South,182,7.0,7.0,89,0.00,,,0.00,Wunderground v.1.15,2013-02-12 11:55:00,
2013-02-12 06:00:00,18.3,15.6,30.04,SW,217,0.0,7.0,89,0.00,,,0.00,Wunderground v.1.15,2013-02-12 12:00:00,
2013-02-12 06:05:00,18.2,15.5,30.04,South,174,4.0,7.0,89,0.00,,,0.00,Wunderground v.1.15,2013-02-12 12:05:00,
2013-02-12 06:10:00,18.0,15.3,30.04,SSW,207,3.0,7.0,89,0.00,,,0.00,Wunderground v.1.15,2013-02-12 12:10:00,
2013-02-12 06:15:00,17.8,15.1,30.04,SSW,200,4.0,4.0,89,0.00,,,0.00,Wunderground v.1.15,2013-02-12 12:15:00,
2013-02-12 06:20:00,17.6,14.9,30.03,SSW,200,2.0,2.0,89,0.00,,,0.00,Wunderground v.1.15,2013-02-12 12:20:00,
2013-02-12 06:26:00,17.4,14.7,30.03,SSW,200,0.0,3.0,89,0.00,,,0.00,Wunderground v.1.15,2013-02-12 12:26:00,
2013-02-12 06:31:00,17.1,14.4,30.03,SSW,196,0.0,1.0,89,0.00,,,0.00,Wunderground v.1.15,2013-02-12 12:31:00,
2013-02-12 06:36:00,16.9,14.5,30.02,SSW,196,2.0,3.0,90,0.00,,,0.00,Wunderground v.1.15,2013-02-12 12:36:00,
2013-02-12 06:41:00,16.6,14.2,30.03,SSW,194,3.0,3.0,90,0.00,,,0.00,Wunderground v.1.15,2013-02-12 12:41:00,
2013-02-12 06:46:00,16.3,13.9,30.02,SSW,194,0.0,3.0,90,0.00,,,0.00,Wunderground v.1.15,2013-02-12 12:46:00,
2013-02-12 06:51:00,16.0,13.6,30.02,SSW,193,1.0,2.0,90,0.00,,,0.00,Wunderground v.1.15,2013-02-12 12:51:00,
2013-02-12 06:56:00,15.6,13.2,30.02,South,178,2.0,5.0,90,0.00,,,0.00,Wunderground v.1.15,2013-02-12 12:56:00,
2013-02-12 07:01:00,15.3,12.9,30.02,South,178,1.0,1.0,90,0.00,,,0.00,Wunderground v.1.15,2013-02-12 13:01:00,
2013-02-12 07:06:00,15.0,12.6,30.02,South,178,0.0,4.0,90,0.00,,,0.00,Wunderground v.1.15,2013-02-12 13:06:00,
2013-02-12 07:12:00,14.6,12.2,30.02,South,178,0.0,5.0,90,0.00,,,0.00,Wunderground v.1.15,2013-02-12 13:12:00,
2013-02-12 07:17:00,14.4,12.3,30.01,South,179,2.0,5.0,91,0.00,,,0.00,Wunderground v.1.15,2013-02-12 13:17:00,
2013-02-12 07:22:00,14.2,12.1,30.01,South,178,2.0,2.0,91,0.00,,,0.00,Wunderground v.1.15,2013-02-12 13:22:00,
2013-02-12 07:27:00,14.1,12.2,30.01,SSE,168,2.0,5.0,92,0.00,,,0.00,Wunderground v.1.15,2013-02-12 13:27:00,
2013-02-12 07:32:00,14.1,12.2,30.01,SSE,168,0.0,1.0,92,0.00,,,0.00,Wunderground v.1.15,2013-02-12 13:32:00,
2013-02-12 07:37:00,14.2,12.3,30.01,SSE,167,1.0,5.0,92,0.00,,,0.00,Wunderground v.1.15,2013-02-12 13:37:00,
2013-02-12 07:43:00,14.2,12.5,30.00,SSE,165,0.0,4.0,93,0.00,,,0.00,Wunderground v.1.15,2013-02-12 13:43:00,
2013-02-12 07:48:00,14.4,12.7,30.00,SSE,166,2.0,5.0,93,0.00,,,0.00,Wunderground v.1.15,2013-02-12 13:48:00,
2013-02-12 07:53:00,14.7,13.0,30.00,South,174,4.0,5.0,93,0.00,,,0.00,Wunderground v.1.15,2013-02-12 13:53:00,
2013-02-12 07:58:00,14.9,13.2,30.00,South,173,2.0,6.0,93,0.00,,,0.00,Wunderground v.1.15,2013-02-12 13:58:00,
2013-02-12 08:03:00,15.1,13.4,30.00,SSE,161,2.0,4.0,93,0.00,,,0.00,Wunderground v.1.15,2013-02-12 14:03:00,
2013-02-12 08:08:00,15.3,13.6,30.00,SSE,163,5.0,6.0,93,0.00,,,0.00,Wunderground v.1.15,2013-02-12 14:08:00,
2013-02-12 08:13:00,15.5,13.8,30.00,SSE,161,0.0,6.0,93,0.00,,,0.00,Wunderground v.1.15,2013-02-12 14:13:00,
2013-02-12 08:18:00,15.9,14.2,30.00,SE,139,4.0,6.0,93,0.00,,,0.00,Wunderground v.1.15,2013-02-12 14:18:00,
2013-02-12 08:24:00,16.3,14.6,30.00,SSE,153,8.0,8.0,93,0.00,,,0.00,Wunderground v.1.15,2013-02-12 14:24:00,
2013-02-12 08:29:00,16.8,15.1,30.00,South,191,2.0,10.0,93,0.00,,,0.00,Wunderground v.1.15,2013-02-12 14:29:00,
2013-02-12 08:34:00,17.2,15.3,30.00,South,178,5.0,9.0,92,0.00,,,0.00,Wunderground v.1.15,2013-02-12 14:34:00,
2013-02-12 08:39:00,17.7,15.8,30.00,South,181,6.0,9.0,92,0.00,,,0.00,Wunderground v.1.15,2013-02-12 14:39:00,
2013-02-12 08:44:00,18.2,16.0,30.00,SSW,198,2.0,7.0,91,0.00,,,0.00,Wunderground v.1.15,2013-02-12 14:44:00,
2013-02-12 08:49:00,18.8,16.6,29.99,SE,144,8.0,11.0,91,0.00,,,0.00,Wunderground v.1.15,2013-02-12 14:49:00,
2013-02-12 08:54:00,19.5,17.0,29.99,SSW,201,3.0,8.0,90,0.00,,,0.00,Wunderground v.1.15,2013-02-12 14:54:00,
2013-02-12 09:00:00,20.1,17.1,29.99,South,178,11.0,11.0,88,0.00,,,0.00,Wunderground v.1.15,2013-02-12 15:00:00,
2013-02-12 09:05:00,20.6,17.6,29.99,South,185,8.0,11.0,88,0.00,,,0.00,Wunderground v.1.15,2013-02-12 15:05:00,
2013-02-12 09:10:00,21.0,17.7,29.99,South,169,9.0,12.0,87,0.00,,,0.00,Wunderground v.1.15,2013-02-12 15:10:00,
2013-02-12 09:15:00,21.3,18.0,29.99,SW,224,6.0,9.0,87,0.00,,,0.00,Wunderground v.1.15,2013-02-12 15:15:00,
2013-02-12 09:20:00,21.8,18.5,29.99,South,175,14.0,14.0,87,0.00,,,0.00,Wunderground v.1.15,2013-02-12 15:20:00,
2013-02-12 09:25:00,22.0,18.7,29.99,WSW,242,4.0,11.0,87,0.00,,,0.00,Wunderground v.1.15,2013-02-12 15:25:00,
2013-02-12 09:30:00,22.3,19.0,29.98,South,190,5.0,6.0,87,0.00,,,0.00,Wunderground v.1.15,2013-02-12 15:30:00,
2013-02-12 09:35:00,22.5,19.2,29.99,South,178,7.0,11.0,87,0.00,,,0.00,Wunderground v.1.15,2013-02-12 15:35:00,
2013-02-12 09:40:00,22.9,19.3,29.98,SSW,196,4.0,6.0,86,0.00,,,0.00,Wunderground v.1.15,2013-02-12 15:40:00,
2013-02-12 09:46:00,23.4,19.8,29.98,SW,225,0.0,9.0,86,0.00,,,0.00,Wunderground v.1.15,2013-02-12 15:46:00,
2013-02-12 09:51:00,23.9,20.3,29.97,South,177,4.0,5.0,86,0.00,,,0.00,Wunderground v.1.15,2013-02-12 15:51:00,
2013-02-12 09:56:00,24.3,20.4,29.98,SSW,196,3.0,8.0,85,0.00,,,0.00,Wunderground v.1.15,2013-02-12 15:56:00,
2013-02-12 10:01:00,24.8,20.9,29.97,SSW,205,3.0,7.0,85,0.00,,,0.00,Wunderground v.1.15,2013-02-12 16:01:00,
2013-02-12 10:06:00,25.3,21.1,29.97,WSW,255,7.0,8.0,84,0.00,,,0.00,Wunderground v.1.15,2013-02-12 16:06:00,
2013-02-12 10:11:00,25.6,21.2,29.97,SW,217,6.0,6.0,83,0.00,,,0.00,Wunderground v.1.15,2013-02-12 16:11:00,
2013-02-12 10:17:00,25.7,21.3,29.97,SW,236,3.0,10.0,83,0.00,,,0.00,Wunderground v.1.15,2013-02-12 16:17:00,
2013-02-12 10:22:00,26.0,21.5,29.97,SW,223,5.0,5.0,83,0.00,,,0.00,Wunderground v.1.15,2013-02-12 16:22:00,
2013-02-12 10:27:00,26.5,21.7,29.97,SW,221,4.0,10.0,82,0.00,,,0.00,Wunderground v.1.15,2013-02-12 16:27:00,
2013-02-12 10:32:00,26.5,21.5,29.97,SSW,203,7.0,11.0,81,0.00,,,0.00,Wunderground v.1.15,2013-02-12 16:32:00,
2013-02-12 10:37:00,26.7,21.7,29.97,SW,215,4.0,12.0,81,0.00,,,0.00,Wunderground v.1.15,2013-02-12 16:37:00,
2013-02-12 10:42:00,26.8,21.8,29.97,SSE,165,7.0,11.0,81,0.00,,,0.00,Wunderground v.1.15,2013-02-12 16:42:00,
2013-02-12 10:47:00,27.3,21.9,29.97,South,186,6.0,11.0,80,0.00,,,0.00,Wunderground v.1.15,2013-02-12 16:47:00,
2013-02-12 10:52:00,27.6,21.9,29.97,WSW,246,7.0,10.0,79,0.00,,,0.00,Wunderground v.1.15,2013-02-12 16:52:00,
2013-02-12 10:57:00,27.7,22.0,29.97,SSW,206,3.0,10.0,79,0.00,,,0.00,Wunderground v.1.15,2013-02-12 16:57:00,
2013-02-12 11:03:00,27.7,22.0,29.97,SW,232,2.0,8.0,79,0.00,,,0.00,Wunderground v.1.15,2013-02-12 17:03:00,
2013-02-12 11:08:00,27.5,21.8,29.96,South,185,4.0,10.0,79,0.00,,,0.00,Wunderground v.1.15,2013-02-12 17:08:00,
2013-02-12 11:13:00,27.9,22.2,29.96,SW,234,5.0,8.0,79,0.00,,,0.00,Wunderground v.1.15,2013-02-12 17:13:00,
2013-02-12 11:18:00,28.2,22.5,29.96,SW,221,8.0,10.0,79,0.00,,,0.00,Wunderground v.1.15,2013-02-12 17:18:00,
2013-02-12 11:23:00,28.6,22.6,29.96,WSW,247,5.0,13.0,78,0.00,,,0.00,Wunderground v.1.15,2013-02-12 17:23:00,
2013-02-12 11:28:00,28.8,22.5,29.96,SSE,166,8.0,13.0,77,0.00,,,0.00,Wunderground v.1.15,2013-02-12 17:28:00,
2013-02-12 11:33:00,29.1,22.8,29.96,South,181,9.0,9.0,77,0.00,,,0.00,Wunderground v.1.15,2013-02-12 17:33:00,
2013-02-12 11:38:00,29.6,23.0,29.95,SSW,205,8.0,9.0,76,0.00,,,0.00,Wunderground v.1.15,2013-02-12 17:38:00,
2013-02-12 11:43:00,29.4,22.8,29.95,WSW,254,2.0,9.0,76,0.00,,,0.00,Wunderground v.1.15,2013-02-12 17:43:00,
2013-02-12 11:48:00,30.2,23.2,29.95,SW,223,5.0,9.0,75,0.00,,,0.00,Wunderground v.1.15,2013-02-12 17:48:00,
2013-02-12 11:53:00,30.2,23.2,29.95,SSE,161,9.0,11.0,75,0.00,,,0.01,Wunderground v.1.15,2013-02-12 17:53:00,
2013-02-12 11:58:00,30.1,22.8,29.95,WSW,257,4.0,13.0,74,0.00,,,0.01,Wunderground v.1.15,2013-02-12 17:58:00,
2013-02-12 12:03:00,30.5,23.2,29.94,WSW,246,6.0,9.0,74,0.00,,,0.01,Wunderground v.1.15,2013-02-12 18:03:00,
2013-02-12 12:08:00,30.5,22.9,29.94,SW,221,3.0,9.0,73,0.04,,,0.02,Wunderground v.1.15,2013-02-12 18:08:00,
2013-02-12 12:13:00,30.5,22.9,29.94,WSW,238,6.0,10.0,73,0.04,,,0.02,Wunderground v.1.15,2013-02-12 18:13:00,
2013-02-12 12:19:00,30.7,23.1,29.94,SW,234,7.0,12.0,73,0.06,,,0.03,Wunderground v.1.15,2013-02-12 18:19:00,
2013-02-12 12:24:00,30.7,22.7,29.93,West,261,6.0,10.0,72,0.06,,,0.03,Wunderground v.1.15,2013-02-12 18:24:00,
2013-02-12 12:29:00,31.3,23.6,29.93,WSW,237,8.0,10.0,73,0.05,,,0.03,Wunderground v.1.15,2013-02-12 18:29:00,
2013-02-12 12:35:00,31.4,23.7,29.93,WSW,248,8.0,10.0,73,0.00,,,0.03,Wunderground v.1.15,2013-02-12 18:35:00,
2013-02-12 12:40:00,31.2,22.9,29.93,WSW,238,7.0,11.0,71,0.00,,,0.04,Wunderground v.1.15,2013-02-12 18:40:00,
2013-02-12 12:45:00,31.4,23.4,29.93,WSW,245,7.0,9.0,72,0.00,,,0.04,Wunderground v.1.15,2013-02-12 18:45:00,
2013-02-12 12:50:00,31.2,23.2,29.92,WSW,245,8.0,11.0,72,0.05,,,0.04,Wunderground v.1.15,2013-02-12 18:50:00,
2013-02-12 12:55:00,31.4,23.4,29.92,West,277,4.0,11.0,72,0.05,,,0.05,Wunderground v.1.15,2013-02-12 18:55:00,
2013-02-12 13:00:00,31.8,23.8,29.92,SW,216,4.0,6.0,72,0.05,,,0.05,Wunderground v.1.15,2013-02-12 19:00:00,
2013-02-12 13:05:00,32.0,23.7,29.92,SSW,207,2.0,10.0,71,0.04,,,0.05,Wunderground v.1.15,2013-02-12 19:05:00,
2013-02-12 13:10:00,32.3,23.9,29.92,WSW,244,4.0,6.0,71,0.04,,,0.06,Wunderground v.1.15,2013-02-12 19:10:00,
2013-02-12 13:15:00,32.5,23.8,29.91,WSW,248,6.0,8.0,70,0.04,,,0.06,Wunderground v.1.15,2013-02-12 19:15:00,
2013-02-12 13:21:00,32.3,23.9,29.91,WSW,254,9.0,9.0,71,0.06,,,0.07,Wunderground v.1.15,2013-02-12 19:21:00,
2013-02-12 13:26:00,32.2,23.8,29.91,SW,217,5.0,11.0,71,0.06,,,0.07,Wunderground v.1.15,2013-02-12 19:26:00,
2013-02-12 13:31:00,32.7,24.0,29.91,WSW,248,8.0,8.0,70,0.06,,,0.08,Wunderground v.1.15,2013-02-12 19:31:00,
2013-02-12 13:36:00,32.9,24.2,29.91,SW,226,4.0,8.0,70,0.06,,,0.08,Wunderground v.1.15,2013-02-12 19:36:00,
2013-02-12 13:42:00,33.2,24.1,29.91,WSW,242,12.0,12.0,69,0.05,,,0.09,Wunderground v.1.15,2013-02-12 19:42:00,
2013-02-12 13:47:00,32.7,24.0,29.91,SW,215,10.0,12.0,70,0.05,,,0.09,Wunderground v.1.15,2013-02-12 19:47:00,
2013-02-12 13:52:00,33.0,24.3,29.90,SSW,196,11.0,11.0,70,0.05,,,0.09,Wunderground v.1.15,2013-02-12 19:52:00,
2013-02-12 13:57:00,33.5,24.4,29.90,WSW,251,6.0,11.0,69,0.05,,,0.10,Wunderground v.1.15,2013-02-12 19:57:00,
2013-02-12 14:02:00,33.1,24.0,29.90,WSW,248,4.0,8.0,69,0.05,,,0.10,Wunderground v.1.15,2013-02-12 20:02:00,
2013-02-12 14:07:00,33.5,24.4,29.90,WSW,244,3.0,10.0,69,0.05,,,0.11,Wunderground v.1.15,2013-02-12 20:07:00,
2013-02-12 14:12:00,33.6,24.2,29.90,WSW,250,9.0,10.0,68,0.05,,,0.11,Wunderground v.1.15,2013-02-12 20:12:00,
2013-02-12 14:17:00,33.6,24.5,29.90,SW,232,3.0,10.0,69,0.06,,,0.12,Wunderground v.1.15,2013-02-12 20:17:00,
2013-02-12 14:22:00,33.8,24.4,29.90,SW,235,4.0,8.0,68,0.06,,,0.12,Wunderground v.1.15,2013-02-12 20:22:00,
2013-02-12 14:28:00,34.3,24.8,29.90,WSW,246,5.0,10.0,68,0.05,,,0.13,Wunderground v.1.15,2013-02-12 20:28:00,
2013-02-12 14:33:00,34.2,24.7,29.90,West,261,6.0,7.0,68,0.05,,,0.13,Wunderground v.1.15,2013-02-12 20:33:00,
2013-02-12 14:38:00,34.3,24.8,29.90,SW,221,5.0,11.0,68,0.05,,,0.14,Wunderground v.1.15,2013-02-12 20:38:00,
2013-02-12 14:43:00,34.2,24.7,29.90,SW,220,2.0,6.0,68,0.05,,,0.14,Wunderground v.1.15,2013-02-12 20:43:00,
2013-02-12 14:48:00,34.5,25.0,29.90,WSW,246,5.0,7.0,68,0.05,,,0.14,Wunderground v.1.15,2013-02-12 20:48:00,
2013-02-12 14:53:00,34.4,24.9,29.90,SSW,213,3.0,7.0,68,0.05,,,0.15,Wunderground v.1.15,2013-02-12 20:53:00,
2013-02-12 14:58:00,34.5,25.0,29.90,West,265,5.0,9.0,68,0.05,,,0.15,Wunderground v.1.15,2013-02-12 20:58:00,
2013-02-12 15:03:00,34.6,25.1,29.90,SSW,213,6.0,8.0,68,0.05,,,0.16,Wunderground v.1.15,2013-02-12 21:03:00,
2013-02-12 15:09:00,34.4,24.9,29.90,WSW,250,5.0,14.0,68,0.05,,,0.16,Wunderground v.1.15,2013-02-12 21:09:00,
2013-02-12 15:14:00,34.3,24.8,29.90,West,277,5.0,10.0,68,0.05,,,0.17,Wunderground v.1.15,2013-02-12 21:14:00,
2013-02-12 15:19:00,34.4,24.9,29.90,West,265,5.0,10.0,68,0.05,,,0.17,Wunderground v.1.15,2013-02-12 21:19:00,
2013-02-12 15:24:00,34.6,25.5,29.90,WSW,255,3.0,8.0,69,0.06,,,0.18,Wunderground v.1.15,2013-02-12 21:24:00,
2013-02-12 15:29:00,35.2,25.3,29.90,West,264,10.0,10.0,67,0.06,,,0.18,Wunderground v.1.15,2013-02-12 21:29:00,
2013-02-12 15:34:00,34.9,25.0,29.90,WSW,248,4.0,8.0,67,0.06,,,0.18,Wunderground v.1.15,2013-02-12 21:34:00,
2013-02-12 15:39:00,34.7,24.5,29.90,WSW,243,7.0,11.0,66,0.04,,,0.19,Wunderground v.1.15,2013-02-12 21:39:00,
2013-02-12 15:44:00,34.3,24.5,29.90,WSW,238,8.0,9.0,67,0.04,,,0.19,Wunderground v.1.15,2013-02-12 21:44:00,
2013-02-12 15:50:00,34.4,24.9,29.90,West,262,4.0,9.0,68,0.04,,,0.19,Wunderground v.1.15,2013-02-12 21:50:00,
2013-02-12 15:55:00,34.3,24.8,29.90,WSW,243,7.0,9.0,68,0.04,,,0.20,Wunderground v.1.15,2013-02-12 21:55:00,
2013-02-12 16:00:00,34.4,24.9,29.90,WSW,244,6.0,6.0,68,0.04,,,0.20,Wunderground v.1.15,2013-02-12 22:00:00,
2013-02-12 16:05:00,34.1,24.6,29.90,West,267,7.0,12.0,68,0.04,,,0.20,Wunderground v.1.15,2013-02-12 22:05:00,
2013-02-12 16:11:00,33.9,24.4,29.90,WSW,249,3.0,7.0,68,0.00,,,0.20,Wunderground v.1.15,2013-02-12 22:11:00,
2013-02-12 16:16:00,33.9,24.4,29.90,WSW,242,2.0,10.0,68,0.00,,,0.21,Wunderground v.1.15,2013-02-12 22:16:00,
2013-02-12 16:21:00,34.1,24.6,29.90,WSW,250,4.0,5.0,68,0.00,,,0.21,Wunderground v.1.15,2013-02-12 22:21:00,
2013-02-12 16:26:00,33.8,24.4,29.90,South,181,1.0,11.0,68,0.00,,,0.21,Wunderground v.1.15,2013-02-12 22:26:00,
2013-02-12 16:31:00,33.4,24.3,29.90,WSW,252,6.0,10.0,69,0.00,,,0.21,Wunderground v.1.15,2013-02-12 22:31:00,
2013-02-12 16:36:00,33.2,24.1,29.90,SW,215,8.0,10.0,69,0.00,,,0.22,Wunderground v.1.15,2013-02-12 22:36:00,
2013-02-12 16:41:00,33.0,24.3,29.90,WSW,246,7.0,7.0,70,0.00,,,0.22,Wunderground v.1.15,2013-02-12 22:41:00,
2013-02-12 16:47:00,32.6,23.9,29.90,SW,229,9.0,12.0,70,0.00,,,0.22,Wunderground v.1.15,2013-02-12 22:47:00,
2013-02-12 16:52:00,32.5,24.1,29.90,SW,234,7.0,11.0,71,0.00,,,0.22,Wunderground v.1.15,2013-02-12 22:52:00,
2013-02-12 16:57:00,32.4,24.0,29.90,West,267,4.0,11.0,71,0.00,,,0.22,Wunderground v.1.15,2013-02-12 22:57:00,
2013-02-12 17:02:00,31.9,23.6,29.89,West,268,5.0,8.0,71,0.00,,,0.22,Wunderground v.1.15,2013-02-12 23:02:00,
2013-02-12 17:07:00,31.4,23.7,29.90,SW,228,8.0,8.0,73,0.00,,,0.22,Wunderground v.1.15,2013-02-12 23:07:00,
2013-02-12 17:12:00,31.1,23.5,29.90,WSW,246,4.0,9.0,73,0.00,,,0.23,Wunderground v.1.15,2013-02-12 23:12:00,
2013-02-12 17:17:00,30.9,23.6,29.90,WSW,252,6.0,10.0,74,0.00,,,0.23,Wunderground v.1.15,2013-02-12 23:17:00,
2013-02-12 17:22:00,30.5,23.5,29.90,WSW,254,2.0,7.0,75,0.00,,,0.23,Wunderground v.1.15,2013-02-12 23:22:00,
2013-02-12 17:27:00,30.2,23.2,29.89,WSW,238,6.0,7.0,75,0.00,,,0.23,Wunderground v.1.15,2013-02-12 23:27:00,
2013-02-12 17:33:00,30.0,23.4,29.90,WSW,246,4.0,5.0,76,0.00,,,0.23,Wunderground v.1.15,2013-02-12 23:33:00,
2013-02-12 17:38:00,29.8,23.2,29.90,SW,229,0.0,7.0,76,0.00,,,0.23,Wunderground v.1.15,2013-02-12 23:38:00,
2013-02-12 17:43:00,29.6,23.3,29.90,WSW,242,1.0,5.0,77,0.00,,,0.23,Wunderground v.1.15,2013-02-12 23:43:00,
2013-02-12 17:48:00,29.4,23.1,29.89,WSW,237,1.0,6.0,77,0.00,,,0.23,Wunderground v.1.15,2013-02-12 23:48:00,
2013-02-12 17:53:00,29.1,23.1,29.89,West,259,2.0,5.0,78,0.00,,,0.23,Wunderground v.1.15,2013-02-12 23:53:00,
2013-02-12 17:58:00,28.9,22.9,29.89,WSW,246,3.0,5.0,78,0.00,,,0.23,Wunderground v.1.15,2013-02-12 23:58:00,
2013-02-12 18:03:00,28.8,22.8,29.90,SW,232,2.0,4.0,78,0.00,,,0.23,Wunderground v.1.15,2013-02-13 00:03:00,
2013-02-12 18:09:00,28.6,22.9,29.90,SW,232,1.0,4.0,79,0.00,,,0.23,Wunderground v.1.15,2013-02-13 00:09:00,
2013-02-12 18:14:00,28.4,22.7,29.90,SW,232,0.0,3.0,79,0.00,,,0.23,Wunderground v.1.15,2013-02-13 00:14:00,
2013-02-12 18:19:00,28.1,22.4,29.90,WSW,238,3.0,5.0,79,0.00,,,0.23,Wunderground v.1.15,2013-02-13 00:19:00,
2013-02-12 18:24:00,28.0,22.6,29.90,SW,234,0.0,4.0,80,0.00,,,0.23,Wunderground v.1.15,2013-02-13 00:24:00,
2013-02-12 18:29:00,27.8,22.4,29.90,SW,230,2.0,5.0,80,0.00,,,0.23,Wunderground v.1.15,2013-02-13 00:29:00,
2013-02-12 18:34:00,27.7,22.6,29.90,SW,235,0.0,5.0,81,0.00,,,0.23,Wunderground v.1.15,2013-02-13 00:34:00,
2013-02-12 18:39:00,27.5,22.4,29.90,WSW,240,3.0,5.0,81,0.00,,,0.23,Wunderground v.1.15,2013-02-13 00:39:00,
2013-02-12 18:44:00,27.3,22.2,29.89,WSW,240,0.0,3.0,81,0.00,,,0.23,Wunderground v.1.15,2013-02-13 00:44:00,
2013-02-12 18:49:00,27.1,22.0,29.89,WSW,239,2.0,3.0,81,0.00,,,0.23,Wunderground v.1.15,2013-02-13 00:49:00,
2013-02-12 18:54:00,26.9,22.1,29.89,SW,227,0.0,3.0,82,0.00,,,0.23,Wunderground v.1.15,2013-02-13 00:54:00,
2013-02-12 18:59:00,26.7,21.9,29.89,SW,227,1.0,3.0,82,0.00,,,0.23,Wunderground v.1.15,2013-02-13 00:59:00,
2013-02-12 19:04:00,26.5,22.0,29.89,SW,229,2.0,6.0,83,0.00,,,0.23,Wunderground v.1.15,2013-02-13 01:04:00,
2013-02-12 19:10:00,26.2,21.7,29.88,SW,227,2.0,6.0,83,0.00,,,0.23,Wunderground v.1.15,2013-02-13 01:10:00,
2013-02-12 19:15:00,26.1,21.6,29.89,WSW,240,5.0,5.0,83,0.00,,,0.23,Wunderground v.1.15,2013-02-13 01:15:00,
2013-02-12 19:20:00,26.1,21.6,29.89,WSW,239,4.0,7.0,83,0.00,,,0.23,Wunderground v.1.15,2013-02-13 01:20:00,
2013-02-12 19:25:00,26.0,21.5,29.89,WSW,238,3.0,5.0,83,0.00,,,0.23,Wunderground v.1.15,2013-02-13 01:25:00,
2013-02-12 19:30:00,26.0,21.8,29.89,WSW,240,0.0,5.0,84,0.00,,,0.23,Wunderground v.1.15,2013-02-13 01:30:00,
2013-02-12 19:35:00,26.0,21.8,29.89,West,265,5.0,5.0,84,0.00,,,0.23,Wunderground v.1.15,2013-02-13 01:35:00,
2013-02-12 19:40:00,26.0,21.8,29.89,WSW,242,6.0,6.0,84,0.00,,,0.23,Wunderground v.1.15,2013-02-13 01:40:00,
2013-02-12 19:46:00,26.0,21.8,29.89,WSW,252,2.0,6.0,84,0.00,,,0.23,Wunderground v.1.15,2013-02-13 01:46:00,
2013-02-12 19:51:00,25.9,21.7,29.89,West,267,2.0,3.0,84,0.00,,,0.23,Wunderground v.1.15,2013-02-13 01:51:00,
2013-02-12 19:56:00,25.7,21.5,29.89,West,269,3.0,4.0,84,0.00,,,0.23,Wunderground v.1.15,2013-02-13 01:56:00,
2013-02-12 20:01:00,25.6,21.4,29.89,WSW,249,3.0,3.0,84,0.00,,,0.23,Wunderground v.1.15,2013-02-13 02:01:00,
2013-02-12 20:06:00,25.5,21.3,29.89,WSW,249,1.0,5.0,84,0.00,,,0.23,Wunderground v.1.15,2013-02-13 02:06:00,
2013-02-12 20:11:00,25.3,21.4,29.89,WSW,248,1.0,3.0,85,0.00,,,0.23,Wunderground v.1.15,2013-02-13 02:11:00,
2013-02-12 20:16:00,25.2,21.0,29.89,WSW,250,1.0,4.0,84,0.00,,,0.23,Wunderground v.1.15,2013-02-13 02:16:00,
2013-02-12 20:21:00,25.0,21.1,29.89,West,273,3.0,4.0,85,0.00,,,0.23,Wunderground v.1.15,2013-02-13 02:21:00,
2013-02-12 20:26:00,24.9,21.0,29.89,West,261,4.0,6.0,85,0.00,,,0.23,Wunderground v.1.15,2013-02-13 02:26:00,
2013-02-12 20:32:00,24.9,21.0,29.89,West,259,0.0,5.0,85,0.00,,,0.23,Wunderground v.1.15,2013-02-13 02:32:00,
2013-02-12 20:37:00,25.0,21.1,29.89,WSW,257,6.0,6.0,85,0.00,,,0.23,Wunderground v.1.15,2013-02-13 02:37:00,
2013-02-12 20:42:00,24.9,21.0,29.89,West,263,0.0,3.0,85,0.00,,,0.23,Wunderground v.1.15,2013-02-13 02:42:00,
2013-02-12 20:47:00,24.9,20.8,29.89,West,263,0.0,6.0,84,0.00,,,0.23,Wunderground v.1.15,2013-02-13 02:47:00,
2013-02-12 20:52:00,24.8,20.7,29.89,WSW,257,5.0,6.0,84,0.00,,,0.23,Wunderground v.1.15,2013-02-13 02:52:00,
2013-02-12 20:57:00,24.8,20.7,29.89,West,259,2.0,7.0,84,0.00,,,0.23,Wunderground v.1.15,2013-02-13 02:57:00,
2013-02-12 21:03:00,24.6,20.5,29.89,WSW,250,3.0,4.0,84,0.00,,,0.23,Wunderground v.1.15,2013-02-13 03:03:00,
2013-02-12 21:08:00,24.4,20.5,29.89,WSW,250,0.0,4.0,85,0.00,,,0.23,Wunderground v.1.15,2013-02-13 03:08:00,
2013-02-12 21:13:00,24.3,20.4,29.89,WSW,246,1.0,4.0,85,0.00,,,0.23,Wunderground v.1.15,2013-02-13 03:13:00,
2013-02-12 21:18:00,24.3,20.4,29.89,WSW,250,0.0,4.0,85,0.00,,,0.23,Wunderground v.1.15,2013-02-13 03:18:00,
2013-02-12 21:23:00,24.3,20.4,29.89,WSW,248,2.0,4.0,85,0.00,,,0.23,Wunderground v.1.15,2013-02-13 03:23:00,
2013-02-12 21:28:00,24.3,20.4,29.88,WSW,247,3.0,4.0,85,0.00,,,0.23,Wunderground v.1.15,2013-02-13 03:28:00,
2013-02-12 21:33:00,24.2,20.3,29.88,SW,234,3.0,4.0,85,0.00,,,0.23,Wunderground v.1.15,2013-02-13 03:33:00,
2013-02-12 21:38:00,24.1,20.5,29.88,WSW,240,3.0,5.0,86,0.00,,,0.23,Wunderground v.1.15,2013-02-13 03:38:00,
2013-02-12 21:43:00,24.0,20.4,29.88,WSW,240,0.0,4.0,86,0.00,,,0.23,Wunderground v.1.15,2013-02-13 03:43:00,
2013-02-12 21:48:00,23.8,19.9,29.88,WSW,247,4.0,5.0,85,0.00,,,0.23,Wunderground v.1.15,2013-02-13 03:48:00,
2013-02-12 21:53:00,23.6,20.0,29.88,WSW,244,1.0,3.0,86,0.00,,,0.23,Wunderground v.1.15,2013-02-13 03:53:00,
2013-02-12 21:58:00,23.5,19.9,29.88,WSW,254,0.0,4.0,86,0.00,,,0.23,Wunderground v.1.15,2013-02-13 03:58:00,
2013-02-12 22:04:00,23.3,19.7,29.88,WSW,254,1.0,3.0,86,0.00,,,0.23,Wunderground v.1.15,2013-02-13 04:04:00,
2013-02-12 22:09:00,23.2,19.6,29.87,WSW,254,0.0,3.0,86,0.00,,,0.23,Wunderground v.1.15,2013-02-13 04:09:00,
2013-02-12 22:14:00,23.0,19.7,29.88,WSW,248,0.0,3.0,87,0.00,,,0.23,Wunderground v.1.15,2013-02-13 04:14:00,
2013-02-12 22:19:00,23.0,19.7,29.87,WSW,248,2.0,3.0,87,0.00,,,0.23,Wunderground v.1.15,2013-02-13 04:19:00,
2013-02-12 22:24:00,22.8,19.5,29.87,WSW,248,0.0,4.0,87,0.00,,,0.23,Wunderground v.1.15,2013-02-13 04:24:00,
2013-02-12 22:29:00,22.7,19.4,29.87,WSW,248,3.0,4.0,87,0.00,,,0.23,Wunderground v.1.15,2013-02-13 04:29:00,
2013-02-12 22:34:00,22.6,19.3,29.87,WSW,248,0.0,2.0,87,0.00,,,0.23,Wunderground v.1.15,2013-02-13 04:34:00,
2013-02-12 22:39:00,22.6,19.3,29.87,WSW,251,0.0,3.0,87,0.00,,,0.23,Wunderground v.1.15,2013-02-13 04:39:00,
2013-02-12 22:45:00,22.6,19.6,29.87,WSW,251,0.0,3.0,88,0.00,,,0.23,Wunderground v.1.15,2013-02-13 04:45:00,
2013-02-12 22:50:00,22.7,19.7,29.87,WSW,251,2.0,6.0,88,0.00,,,0.23,Wunderground v.1.15,2013-02-13 04:50:00,
2013-02-12 22:55:00,22.7,19.7,29.87,WSW,257,0.0,5.0,88,0.00,,,0.23,Wunderground v.1.15,2013-02-13 04:55:00,
2013-02-12 23:00:00,22.7,19.7,29.86,WSW,257,2.0,5.0,88,0.00,,,0.23,Wunderground v.1.15,2013-02-13 05:00:00,
2013-02-12 23:01:00,22.7,19.7,29.86,WSW,257,0.0,1.0,88,0.00,,,0.23,Wunderground v.1.15,2013-02-13 05:01:00,
2013-02-12 23:07:00,22.7,19.7,29.86,WSW,257,0.0,3.0,88,0.00,,,0.23,Wunderground v.1.15,2013-02-13 05:07:00,
2013-02-12 23:12:00,22.7,19.7,29.86,WSW,257,0.0,3.0,88,0.00,,,0.23,Wunderground v.1.15,2013-02-13 05:12:00,
2013-02-12 23:17:00,22.7,19.7,29.86,WSW,257,1.0,3.0,88,0.00,,,0.23,Wunderground v.1.15,2013-02-13 05:17:00,
2013-02-12 23:22:00,22.8,19.8,29.86,WSW,257,0.0,2.0,88,0.00,,,0.23,Wunderground v.1.15,2013-02-13 05:22:00,
2013-02-12 23:27:00,22.9,19.9,29.86,WSW,257,0.0,4.0,88,0.00,,,0.23,Wunderground v.1.15,2013-02-13 05:27:00,
2013-02-12 23:32:00,22.9,19.9,29.86,WSW,257,0.0,1.0,88,0.00,,,0.23,Wunderground v.1.15,2013-02-13 05:32:00,
2013-02-12 23:38:00,22.9,19.9,29.85,WSW,257,4.0,4.0,88,0.00,,,0.23,Wunderground v.1.15,2013-02-13 05:38:00,
2013-02-12 23:43:00,22.9,19.9,29.85,WSW,257,0.0,4.0,88,0.00,,,0.23,Wunderground v.1.15,2013-02-13 05:43:00,
2013-02-12 23:48:00,22.9,19.6,29.85,WSW,257,3.0,4.0,87,0.00,,,0.23,Wunderground v.1.15,2013-02-13 05:48:00,
2013-02-12 23:53:00,22.9,19.6,29.85,West,267,0.0,1.0,87,0.00,,,0.23,Wunderground v.1.15,2013-02-13 05:53:00,
2013-02-12 23:58:00,22.8,19.8,29.85,West,267,0.0,4.0,88,0.00,,,0.23,Wunderground v.1.15,2013-02-13 05:58:00,